Time;durP1;ratioP1;P1;durP2;ratioP2;P2;SDS_P1;SDS_P2;PMS_P1;PMS_P2;Temp;Humidity;BMP_temperature;BMP_pressure;BME280_temperature;BME280_humidity;BME280_pressure;Samples;Min_cycle;Max_cycle;Signal;HPM_P1;HPM_P2
2020/12/02 00:00:56;;;;;;;64.10;33.83;;;0.20;80.00;;;;;;5033876;28;20420;-67
2020/12/02 00:03:33;;;;;;;59.83;31.38;;;0.20;79.80;;;;;;5033258;28;20033;-67
2020/12/02 00:06:00;;;;;;;61.10;30.98;;;0.20;80.10;;;;;;5033334;28;20029;-67
2020/12/02 00:08:49;;;;;;;55.83;28.75;;;0.20;80.60;;;;;;5033067;28;20365;-68
2020/12/02 00:11:15;;;;;;;50.90;26.60;;;0.20;80.50;;;;;;5033489;28;20025;-68
2020/12/02 00:13:45;;;;;;;44.80;24.15;;;0.20;80.40;;;;;;5033804;28;20037;-66
2020/12/02 00:16:20;;;;;;;44.90;24.58;;;0.20;80.60;;;;;;5033763;28;20104;-67
2020/12/02 00:18:46;;;;;;;48.80;24.52;;;0.20;80.80;;;;;;5032235;28;20470;-68
2020/12/02 00:21:13;;;;;;;45.40;24.38;;;0.30;80.70;;;;;;5033657;28;20462;-66
2020/12/02 00:23:39;;;;;;;45.20;25.33;;;0.20;80.70;;;;;;5033394;28;20481;-67
2020/12/02 00:26:07;;;;;;;228.15;90.85;;;0.20;80.30;;;;;;5033310;28;20059;-67
2020/12/02 00:28:33;;;;;;;78.95;41.08;;;0.20;80.80;;;;;;5033506;28;20036;-67
2020/12/02 00:30:59;;;;;;;83.15;42.28;;;0.20;81.10;;;;;;5032270;28;20025;-67
2020/12/02 00:33:26;;;;;;;104.63;51.33;;;0.10;81.70;;;;;;5032950;28;20105;-66
2020/12/02 00:35:53;;;;;;;79.05;40.60;;;0.20;80.80;;;;;;5033286;28;20444;-67
2020/12/02 00:38:22;;;;;;;101.22;47.70;;;0.10;80.60;;;;;;5031883;28;20130;-66
2020/12/02 00:40:48;;;;;;;63.63;33.08;;;0.00;81.20;;;;;;5033534;28;20436;-66
2020/12/02 00:43:18;;;;;;;63.88;33.47;;;-0.10;80.60;;;;;;5033646;28;20025;-65
2020/12/02 00:45:44;;;;;;;64.72;33.63;;;-0.10;80.70;;;;;;5033241;28;20029;-68
2020/12/02 00:48:17;;;;;;;64.30;31.75;;;-0.10;80.60;;;;;;5033481;28;20029;-67
2020/12/02 00:50:43;;;;;;;59.55;30.67;;;0.00;80.60;;;;;;5033463;28;20075;-67
2020/12/02 00:53:23;;;;;;;53.55;28.83;;;0.00;80.20;;;;;;5033070;28;20026;-67
2020/12/02 00:55:50;;;;;;;68.60;33.67;;;-0.20;80.00;;;;;;5033377;28;20021;-67
2020/12/02 00:59:00;;;;;;;88.38;41.08;;;-0.10;81.00;;;;;;5033437;28;20049;-68
2020/12/02 01:01:39;;;;;;;80.65;38.08;;;-0.30;80.90;;;;;;5035442;28;20069;-68
2020/12/02 01:04:13;;;;;;;160.45;85.68;;;-0.20;82.00;;;;;;5033679;28;20022;-66
2020/12/02 01:06:39;;;;;;;182.00;91.60;;;-0.30;82.00;;;;;;5033485;28;20022;-68
2020/12/02 01:09:05;;;;;;;209.57;99.35;;;-0.40;82.30;;;;;;5033128;28;20026;-65
2020/12/02 01:11:31;;;;;;;208.35;99.35;;;-0.40;82.00;;;;;;5032767;28;20026;-68
2020/12/02 01:14:04;;;;;;;203.88;99.05;;;-0.40;81.90;;;;;;5032882;28;20021;-66
2020/12/02 01:16:37;;;;;;;207.05;97.75;;;-0.40;81.50;;;;;;5032060;28;20091;-66
2020/12/02 01:19:05;;;;;;;141.77;73.47;;;-0.50;81.60;;;;;;5035355;28;20416;-67
2020/12/02 01:21:49;;;;;;;117.13;59.13;;;-0.50;81.80;;;;;;5035141;28;20029;-69
2020/12/02 01:24:25;;;;;;;140.57;68.03;;;-0.60;81.70;;;;;;5037539;28;20030;-67
2020/12/02 01:27:23;;;;;;;152.77;72.30;;;-0.60;82.10;;;;;;5036416;28;20025;-67
2020/12/02 01:29:50;;;;;;;139.18;68.95;;;-0.50;82.40;;;;;;5036387;28;20022;-68
2020/12/02 01:32:17;;;;;;;115.65;58.30;;;-0.40;81.80;;;;;;5036552;28;20545;-68
2020/12/02 01:34:50;;;;;;;118.75;61.40;;;-0.50;80.60;;;;;;5035913;28;20037;-69
2020/12/02 01:37:40;;;;;;;126.63;64.00;;;-0.50;81.20;;;;;;5035240;28;20125;-67
2020/12/02 01:40:30;;;;;;;124.07;60.72;;;-0.60;81.90;;;;;;5036778;28;20034;-68
2020/12/02 01:43:02;;;;;;;140.07;71.65;;;-0.70;81.00;;;;;;5038384;28;20128;-67
2020/12/02 01:45:40;;;;;;;116.90;60.35;;;-0.70;81.00;;;;;;5036561;28;20104;-67
2020/12/02 01:48:35;;;;;;;109.45;56.67;;;-0.60;81.70;;;;;;5035970;28;20029;-66
2020/12/02 01:51:23;;;;;;;114.45;62.13;;;-0.50;81.20;;;;;;5036025;28;20030;-66
2020/12/02 01:54:01;;;;;;;124.53;67.07;;;-0.60;81.50;;;;;;5035059;28;20061;-68
2020/12/02 01:56:38;;;;;;;118.32;63.97;;;-0.70;81.80;;;;;;5035670;28;20064;-67
2020/12/02 01:59:20;;;;;;;115.68;62.00;;;-0.70;81.70;;;;;;5035654;28;20509;-67
2020/12/02 02:02:05;;;;;;;109.63;57.75;;;-0.70;81.80;;;;;;5035792;28;20112;-66
2020/12/02 02:04:42;;;;;;;103.57;53.00;;;-0.70;81.70;;;;;;5035746;28;20025;-66
2020/12/02 02:07:16;;;;;;;102.10;51.67;;;-0.60;81.50;;;;;;5036240;28;20056;-68
2020/12/02 02:09:47;;;;;;;101.45;51.22;;;-0.70;81.10;;;;;;5034324;28;20033;-68
2020/12/02 02:12:33;;;;;;;112.90;57.20;;;-0.70;81.10;;;;;;5035861;28;20027;-68
2020/12/02 02:15:26;;;;;;;124.15;62.30;;;-0.70;81.50;;;;;;5035543;28;20083;-67
2020/12/02 02:18:03;;;;;;;105.60;55.53;;;-0.80;81.30;;;;;;5035351;28;20032;-67
2020/12/02 02:20:35;;;;;;;117.75;60.47;;;-0.80;80.80;;;;;;5034644;28;20029;-65
2020/12/02 02:23:02;;;;;;;122.55;64.75;;;-0.90;82.10;;;;;;5036025;28;20017;-67
2020/12/02 02:25:29;;;;;;;133.60;67.25;;;-1.00;82.80;;;;;;5035558;28;20045;-66
2020/12/02 02:27:57;;;;;;;121.57;63.53;;;-1.00;82.80;;;;;;5034715;28;20537;-66
2020/12/02 02:30:24;;;;;;;129.80;67.15;;;-1.00;82.80;;;;;;5035097;28;20032;-68
2020/12/02 02:32:50;;;;;;;135.40;70.95;;;-1.10;82.30;;;;;;5035176;28;20021;-66
2020/12/02 02:35:16;;;;;;;129.43;68.05;;;-1.30;82.10;;;;;;5034095;28;20033;-68
2020/12/02 02:37:42;;;;;;;140.20;73.45;;;-1.40;82.70;;;;;;5035017;28;20025;-68
2020/12/02 02:40:10;;;;;;;128.98;69.82;;;-1.40;83.10;;;;;;5035194;28;20489;-69
2020/12/02 02:42:44;;;;;;;127.53;68.47;;;-1.60;83.70;;;;;;5034965;28;20026;-67
2020/12/02 02:45:17;;;;;;;135.02;73.97;;;-1.70;84.00;;;;;;5034988;28;20482;-68
2020/12/02 02:47:43;;;;;;;146.15;79.50;;;-1.60;84.40;;;;;;5034234;28;20033;-67
2020/12/02 02:50:13;;;;;;;158.30;81.13;;;-1.70;85.00;;;;;;5033643;28;20040;-68
2020/12/02 02:52:40;;;;;;;242.00;106.75;;;-1.60;84.80;;;;;;5035007;28;20036;-66
2020/12/02 02:55:11;;;;;;;138.43;73.10;;;-1.70;84.50;;;;;;5035006;28;20025;-67
2020/12/02 02:57:37;;;;;;;151.95;79.32;;;-1.70;85.00;;;;;;5035049;28;20099;-66
2020/12/02 03:00:07;;;;;;;151.07;79.45;;;-1.60;85.00;;;;;;5034293;28;20038;-68
2020/12/02 03:02:33;;;;;;;153.25;76.63;;;-1.50;85.00;;;;;;5035418;28;20496;-68
2020/12/02 03:04:59;;;;;;;131.15;68.28;;;-1.40;84.50;;;;;;5035666;28;20052;-68
2020/12/02 03:07:25;;;;;;;134.43;69.07;;;-1.40;83.80;;;;;;5034276;28;20076;-69
2020/12/02 03:09:51;;;;;;;100.57;54.80;;;-1.40;83.80;;;;;;5034437;28;20029;-67
2020/12/02 03:12:17;;;;;;;113.50;58.92;;;-1.60;83.70;;;;;;5033076;28;20031;-67
2020/12/02 03:14:44;;;;;;;113.25;57.13;;;-1.60;83.80;;;;;;5034632;28;20494;-67
2020/12/02 03:17:20;;;;;;;127.20;67.28;;;-1.60;83.40;;;;;;5034775;28;20481;-67
2020/12/02 03:20:15;;;;;;;125.13;64.93;;;-1.60;83.70;;;;;;5034102;28;20099;-66
2020/12/02 03:22:42;;;;;;;;;;;-1.60;83.50;;;;;;5036242;28;20069;-67
2020/12/02 03:25:13;;;;;;;116.30;60.88;;;-1.60;83.90;;;;;;5034427;28;19911;-66
2020/12/02 03:27:39;;;;;;;113.25;61.17;;;-1.80;84.10;;;;;;5034519;28;20026;-68
2020/12/02 03:30:05;;;;;;;112.15;58.60;;;-1.90;84.30;;;;;;5034540;28;20366;-66
2020/12/02 03:32:30;;;;;;;101.13;51.80;;;-1.90;84.50;;;;;;5034066;28;20022;-65
2020/12/02 03:34:56;;;;;;;107.88;53.95;;;-1.80;85.10;;;;;;5033715;28;20116;-67
2020/12/02 03:37:22;;;;;;;109.22;52.95;;;-1.80;84.30;;;;;;5034545;28;20518;-67
2020/12/02 03:39:47;;;;;;;107.35;55.78;;;-1.80;84.50;;;;;;5033542;28;20057;-66
2020/12/02 03:42:13;;;;;;;113.05;59.08;;;-1.80;84.20;;;;;;5033692;28;20028;-67
2020/12/02 03:44:39;;;;;;;118.22;60.90;;;-1.80;84.40;;;;;;5034148;28;20377;-68
2020/12/02 03:47:05;;;;;;;112.10;57.70;;;-1.90;84.60;;;;;;5033764;28;20029;-66
2020/12/02 03:49:31;;;;;;;108.78;56.00;;;-1.90;84.00;;;;;;5034009;28;20095;-68
2020/12/02 03:51:56;;;;;;;117.20;61.42;;;-2.00;84.10;;;;;;5034040;28;20026;-65
2020/12/02 03:54:22;;;;;;;114.63;58.90;;;-1.90;84.20;;;;;;5033459;28;20033;-67
2020/12/02 03:56:48;;;;;;;105.20;54.97;;;-1.80;84.10;;;;;;5033833;28;20053;-65
2020/12/02 03:59:14;;;;;;;106.90;56.78;;;-1.80;84.10;;;;;;5033102;28;20156;-65
2020/12/02 04:01:40;;;;;;;111.10;59.13;;;-1.80;84.20;;;;;;5033777;28;20526;-65
2020/12/02 04:04:06;;;;;;;104.10;55.28;;;-1.90;84.30;;;;;;5033900;28;20032;-67
2020/12/02 04:06:31;;;;;;;116.53;61.22;;;-1.80;84.40;;;;;;5033844;28;20036;-68
2020/12/02 04:08:57;;;;;;;121.13;63.38;;;-1.80;83.90;;;;;;5033217;28;20481;-67
2020/12/02 04:11:23;;;;;;;134.32;73.15;;;-1.80;83.50;;;;;;5034023;28;20529;-67
2020/12/02 04:13:49;;;;;;;131.05;69.43;;;-1.80;83.20;;;;;;5033786;28;20112;-67
2020/12/02 04:16:14;;;;;;;129.20;68.38;;;-1.80;82.70;;;;;;5032915;28;20382;-67
2020/12/02 04:18:40;;;;;;;119.65;64.70;;;-1.80;84.30;;;;;;5033371;28;20030;-67
2020/12/02 04:21:06;;;;;;;110.28;57.88;;;-1.80;82.70;;;;;;5032058;28;20469;-65
2020/12/02 04:23:32;;;;;;;108.65;57.08;;;-1.90;82.20;;;;;;5033278;28;20033;-66
2020/12/02 04:25:57;;;;;;;108.45;54.95;;;-1.90;82.90;;;;;;5033637;28;20026;-68
2020/12/02 04:28:23;;;;;;;106.00;54.97;;;-1.80;82.60;;;;;;5033644;28;20104;-68
2020/12/02 04:30:49;;;;;;;117.72;61.08;;;-1.80;81.80;;;;;;5033300;28;20064;-66
2020/12/02 04:33:16;;;;;;;117.45;60.78;;;-1.90;82.00;;;;;;5033582;28;20519;-68
2020/12/02 04:35:41;;;;;;;121.10;64.65;;;-1.90;82.70;;;;;;5032287;28;20168;-66
2020/12/02 04:38:10;;;;;;;138.43;73.55;;;-1.80;82.40;;;;;;5031864;28;20088;-66
2020/12/02 04:40:39;;;;;;;135.77;73.88;;;-1.80;82.60;;;;;;5033738;28;20025;-68
2020/12/02 04:43:19;;;;;;;157.82;84.13;;;-1.80;82.40;;;;;;5033173;28;20029;-66
2020/12/02 04:45:47;;;;;;;170.13;94.22;;;-1.90;82.70;;;;;;5033252;28;20436;-67
2020/12/02 04:48:18;;;;;;;181.18;97.05;;;-1.80;83.20;;;;;;5033478;28;20028;-67
2020/12/02 04:50:44;;;;;;;294.23;146.32;;;-1.90;84.00;;;;;;5032149;28;20488;-67
2020/12/02 04:53:23;;;;;;;317.65;160.25;;;-2.00;84.70;;;;;;5035609;28;20462;-65
2020/12/02 04:55:55;;;;;;;304.10;147.75;;;-1.90;83.80;;;;;;5037552;28;20025;-68
2020/12/02 04:58:36;;;;;;;293.98;144.93;;;-1.80;84.40;;;;;;5035442;28;20131;-67
2020/12/02 05:01:33;;;;;;;246.90;119.55;;;-1.80;82.70;;;;;;5036943;28;20037;-66
2020/12/02 05:04:02;;;;;;;237.57;117.30;;;-1.90;83.20;;;;;;5036912;28;20021;-66
2020/12/02 05:06:41;;;;;;;278.75;136.93;;;-1.80;83.20;;;;;;5036739;28;20025;-66
2020/12/02 05:09:22;;;;;;;240.02;123.03;;;-1.90;83.20;;;;;;5036961;28;20033;-65
2020/12/02 05:12:00;;;;;;;202.80;109.82;;;-1.90;83.00;;;;;;5036436;28;20061;-68
2020/12/02 05:14:38;;;;;;;152.75;82.50;;;-1.90;83.20;;;;;;5035650;28;20029;-68
2020/12/02 05:17:15;;;;;;;123.95;66.57;;;-1.90;84.10;;;;;;5036618;28;20039;-68
2020/12/02 05:19:41;;;;;;;116.32;61.70;;;-1.90;84.20;;;;;;5036516;28;20112;-69
2020/12/02 05:22:12;;;;;;;83.95;47.05;;;-1.90;84.00;;;;;;5036773;28;20109;-69
2020/12/02 05:24:49;;;;;;;86.70;43.05;;;-1.90;83.50;;;;;;5037044;28;20084;-69
2020/12/02 05:27:21;;;;;;;134.40;60.28;;;-2.00;84.70;;;;;;5035190;28;20416;-69
2020/12/02 05:30:02;;;;;;;100.72;48.38;;;-2.00;85.40;;;;;;5036629;28;20056;-67
2020/12/02 05:32:29;;;;;;;85.13;42.40;;;-1.90;84.90;;;;;;5036052;28;20044;-69
2020/12/02 05:34:55;;;;;;;87.05;41.75;;;-1.90;84.00;;;;;;5036554;28;20447;-69
2020/12/02 05:37:33;;;;;;;113.28;55.20;;;-1.90;84.00;;;;;;5036797;28;20082;-67
2020/12/02 05:40:04;;;;;;;262.88;120.10;;;-1.90;84.60;;;;;;5036255;28;20033;-67
2020/12/02 05:42:40;;;;;;;190.73;91.88;;;-1.90;85.50;;;;;;5036783;28;20362;-69
2020/12/02 05:45:30;;;;;;;106.65;48.53;;;-1.90;85.60;;;;;;5036664;28;20029;-68
2020/12/02 05:47:57;;;;;;;156.23;74.63;;;-2.00;84.40;;;;;;5036336;28;20036;-67
2020/12/02 05:50:24;;;;;;;175.05;84.28;;;-2.10;84.80;;;;;;5036304;28;20156;-69
2020/12/02 05:53:17;;;;;;;211.77;97.55;;;-2.10;85.00;;;;;;5035919;28;20500;-68
2020/12/02 05:55:43;;;;;;;108.85;55.53;;;-2.10;85.00;;;;;;5035933;28;20022;-66
2020/12/02 05:58:08;;;;;;;169.15;84.03;;;-2.00;85.10;;;;;;5036422;28;20057;-68
2020/12/02 06:00:34;;;;;;;129.68;69.22;;;-2.00;85.30;;;;;;5035742;28;20493;-68
2020/12/02 06:03:01;;;;;;;122.20;62.88;;;-2.00;85.10;;;;;;5033881;28;20056;-67
2020/12/02 06:05:30;;;;;;;160.52;81.18;;;-2.10;84.90;;;;;;5036104;28;20093;-68
2020/12/02 06:08:00;;;;;;;276.75;138.93;;;-2.00;86.30;;;;;;5035389;28;20021;-67
2020/12/02 06:10:32;;;;;;;112.10;60.88;;;-2.10;85.90;;;;;;5035854;28;20470;-66
2020/12/02 06:13:07;;;;;;;103.75;57.85;;;-2.00;85.80;;;;;;5035552;28;20061;-68
2020/12/02 06:15:36;;;;;;;;;;;-2.00;85.70;;;;;;5035984;28;20026;-68
2020/12/02 06:18:17;;;;;;;210.43;103.38;;;-2.00;84.80;;;;;;5035717;28;19908;-68
2020/12/02 06:20:45;;;;;;;217.38;108.75;;;-2.00;85.30;;;;;;5035758;28;20033;-68
2020/12/02 06:23:11;;;;;;;490.38;264.48;;;-2.10;85.40;;;;;;5035632;28;20042;-69
2020/12/02 06:25:49;;;;;;;290.55;146.48;;;-2.00;85.40;;;;;;5035382;28;20073;-69
2020/12/02 06:28:21;;;;;;;346.70;179.90;;;-2.00;85.40;;;;;;5034976;28;20029;-69
2020/12/02 06:31:10;;;;;;;326.73;168.35;;;-2.00;85.30;;;;;;5035781;28;20027;-69
2020/12/02 06:33:40;;;;;;;229.95;115.85;;;-2.00;85.30;;;;;;5034317;28;20103;-70
2020/12/02 06:36:17;;;;;;;250.63;138.20;;;-1.90;85.30;;;;;;5035138;28;20032;-69
2020/12/02 06:38:51;;;;;;;252.70;126.43;;;-2.00;84.70;;;;;;5035303;28;20111;-68
2020/12/02 06:41:20;;;;;;;231.80;122.50;;;-2.00;85.10;;;;;;5035949;28;20036;-68
2020/12/02 06:44:00;;;;;;;200.25;105.45;;;-2.10;85.40;;;;;;5035256;28;20381;-68
2020/12/02 06:47:07;;;;;;;277.88;153.90;;;-2.00;85.60;;;;;;5034168;28;20354;-70
2020/12/02 06:49:36;;;;;;;290.15;155.18;;;-2.10;85.60;;;;;;5034780;28;20048;-69
2020/12/02 06:52:05;;;;;;;224.82;116.75;;;-1.90;85.10;;;;;;5034831;28;20024;-68
2020/12/02 06:54:36;;;;;;;209.30;114.13;;;-1.90;85.30;;;;;;5033485;28;20022;-69
2020/12/02 06:57:31;;;;;;;206.63;109.60;;;-1.80;85.40;;;;;;5034561;28;20057;-69
2020/12/02 07:00:02;;;;;;;206.55;108.72;;;-1.70;85.40;;;;;;5033912;28;20377;-68
2020/12/02 07:02:53;;;;;;;205.68;106.22;;;-1.70;85.70;;;;;;5033679;28;20033;-68
2020/12/02 07:05:42;;;;;;;192.25;101.05;;;-1.60;85.30;;;;;;5034622;28;20056;-68
2020/12/02 07:08:08;;;;;;;213.18;113.07;;;-1.50;85.40;;;;;;5034861;28;20017;-70
2020/12/02 07:10:34;;;;;;;234.88;130.18;;;-1.50;85.30;;;;;;5034665;28;20112;-68
2020/12/02 07:13:00;;;;;;;199.90;107.22;;;-1.60;86.10;;;;;;5034406;28;20038;-68
2020/12/02 07:15:25;;;;;;;195.10;100.63;;;-1.40;86.50;;;;;;5033305;28;20025;-68
2020/12/02 07:17:51;;;;;;;201.00;101.97;;;-1.40;86.00;;;;;;5034323;28;20434;-68
2020/12/02 07:20:19;;;;;;;210.45;111.97;;;-1.30;86.70;;;;;;5034529;28;20033;-71
2020/12/02 07:22:55;;;;;;;227.77;119.95;;;-1.20;86.50;;;;;;5034506;28;20033;-67
2020/12/02 07:25:23;;;;;;;188.05;101.50;;;-1.10;86.10;;;;;;5034261;28;20029;-66
2020/12/02 07:27:49;;;;;;;265.65;145.35;;;-1.00;85.70;;;;;;5034352;28;20096;-70
2020/12/02 07:30:35;;;;;;;155.75;81.97;;;-1.00;86.40;;;;;;5034404;28;20057;-70
2020/12/02 07:33:24;;;;;;;162.65;87.82;;;-0.90;86.30;;;;;;5032954;28;20037;-70
2020/12/02 07:36:04;;;;;;;134.23;76.38;;;-0.80;86.50;;;;;;5033645;28;20067;-70
2020/12/02 07:38:30;;;;;;;160.05;85.53;;;-0.80;87.10;;;;;;5033610;28;20069;-67
2020/12/02 07:41:09;;;;;;;123.30;64.82;;;-0.70;87.50;;;;;;5034208;28;20025;-70
2020/12/02 07:43:37;;;;;;;130.73;68.15;;;-0.70;87.10;;;;;;5032923;28;20029;-70
2020/12/02 07:46:03;;;;;;;126.57;67.20;;;-0.60;87.30;;;;;;5032877;28;20377;-68
2020/12/02 07:48:30;;;;;;;133.25;72.22;;;-0.60;87.40;;;;;;5032813;28;20025;-69
2020/12/02 07:51:07;;;;;;;126.53;64.75;;;-0.60;88.20;;;;;;5034353;28;20075;-67
2020/12/02 07:53:36;;;;;;;125.90;66.00;;;-0.50;87.00;;;;;;5033866;28;20018;-68
2020/12/02 07:56:04;;;;;;;340.00;148.30;;;-0.40;87.40;;;;;;5034489;28;20472;-69
2020/12/02 07:58:40;;;;;;;240.70;101.20;;;-0.30;86.50;;;;;;5034590;28;20064;-68
2020/12/02 08:01:30;;;;;;;162.65;76.20;;;-0.20;86.90;;;;;;5033418;28;20550;-71
2020/12/02 08:03:56;;;;;;;157.25;80.93;;;-0.10;86.10;;;;;;5033660;28;20018;-68
2020/12/02 08:06:43;;;;;;;154.93;81.85;;;-0.30;87.40;;;;;;5033243;28;20028;-68
2020/12/02 08:09:08;;;;;;;170.10;86.28;;;-0.20;86.40;;;;;;5034376;28;20034;-67
2020/12/02 08:11:34;;;;;;;137.23;73.60;;;0.00;86.20;;;;;;5034064;28;20029;-67
2020/12/02 08:14:00;;;;;;;187.82;93.45;;;0.10;85.70;;;;;;5032173;28;20382;-68
2020/12/02 08:16:46;;;;;;;153.68;81.80;;;0.10;85.80;;;;;;5033745;28;20060;-69
2020/12/02 08:19:13;;;;;;;181.15;90.63;;;0.10;86.10;;;;;;5034092;28;20037;-67
2020/12/02 08:21:52;;;;;;;128.57;65.38;;;0.10;87.00;;;;;;5033821;28;20422;-66
2020/12/02 08:24:32;;;;;;;103.43;54.10;;;0.20;87.00;;;;;;5033672;28;20027;-67
2020/12/02 08:26:57;;;;;;;171.77;82.60;;;0.20;87.70;;;;;;5035444;28;20095;-70
2020/12/02 08:29:27;;;;;;;332.10;124.10;;;0.40;86.60;;;;;;5037579;28;20532;-67
2020/12/02 08:32:02;;;;;;;117.93;58.65;;;0.30;86.70;;;;;;5037597;28;20029;-71
2020/12/02 08:34:33;;;;;;;107.55;53.80;;;0.40;87.30;;;;;;5037673;28;20033;-71
2020/12/02 08:37:14;;;;;;;292.95;125.38;;;0.60;87.40;;;;;;5037606;28;20029;-66
2020/12/02 08:39:44;;;;;;;100.97;52.20;;;0.50;86.10;;;;;;5037672;28;20116;-70
2020/12/02 08:42:12;;;;;;;95.97;53.90;;;0.60;86.20;;;;;;5037249;28;20029;-71
2020/12/02 08:44:38;;;;;;;183.52;87.35;;;0.70;86.30;;;;;;5037765;28;20036;-67
2020/12/02 08:47:16;;;;;;;247.27;110.10;;;0.80;85.70;;;;;;5037178;28;20025;-68
2020/12/02 08:49:42;;;;;;;343.05;141.35;;;0.90;84.80;;;;;;5035912;28;20462;-67
2020/12/02 08:52:09;;;;;;;86.68;45.17;;;0.90;84.80;;;;;;5037052;28;20425;-70
2020/12/02 08:54:35;;;;;;;80.68;43.65;;;1.10;84.80;;;;;;5036509;28;20030;-65
2020/12/02 08:57:04;;;;;;;73.40;40.33;;;1.30;84.40;;;;;;5037016;28;20459;-68
2020/12/02 08:59:29;;;;;;;71.75;39.30;;;1.50;83.40;;;;;;5036874;28;20038;-69
2020/12/02 09:02:04;;;;;;;70.55;39.53;;;1.80;83.50;;;;;;5037213;28;20120;-67
2020/12/02 09:04:29;;;;;;;72.32;40.67;;;2.10;82.90;;;;;;5037392;28;20108;-67
2020/12/02 09:06:55;;;;;;;70.53;39.20;;;2.40;80.50;;;;;;5036958;28;20168;-66
2020/12/02 09:09:21;;;;;;;159.88;82.25;;;2.70;80.30;;;;;;5036628;28;20500;-69
2020/12/02 09:11:47;;;;;;;191.02;99.97;;;2.90;78.80;;;;;;5037274;28;20526;-68
2020/12/02 09:14:13;;;;;;;144.15;76.10;;;3.20;83.00;;;;;;5044206;28;20025;-68
2020/12/02 09:16:40;;;;;;;99.57;54.85;;;3.20;76.40;;;;;;5056262;28;20021;-70
2020/12/02 09:19:10;;;;;;;146.73;76.18;;;3.10;75.50;;;;;;5055321;28;20532;-68
2020/12/02 09:21:36;;;;;;;84.53;47.95;;;3.20;77.10;;;;;;5055457;28;20031;-69
2020/12/02 09:24:02;;;;;;;128.80;68.72;;;3.50;75.40;;;;;;5054919;28;20025;-66
2020/12/02 09:26:33;;;;;;;207.45;107.65;;;3.50;74.70;;;;;;5054685;28;20024;-70
2020/12/02 09:28:59;;;;;;;305.02;166.80;;;3.10;75.00;;;;;;5056103;28;20060;-66
2020/12/02 09:31:27;;;;;;;112.55;65.00;;;2.90;75.60;;;;;;5055970;28;20071;-68
2020/12/02 09:33:53;;;;;;;119.30;70.85;;;3.10;76.00;;;;;;5056561;28;20052;-69
2020/12/02 09:36:21;;;;;;;73.38;42.05;;;2.90;75.60;;;;;;5055218;28;20044;-67
2020/12/02 09:38:49;;;;;;;90.15;51.85;;;3.00;76.70;;;;;;5054800;28;20043;-69
2020/12/02 09:41:45;;;;;;;74.47;42.03;;;2.90;77.30;;;;;;5055953;28;20458;-68
2020/12/02 09:44:38;;;;;;;75.55;43.95;;;2.60;75.80;;;;;;5056352;28;20021;-71
2020/12/02 09:47:09;;;;;;;97.95;54.38;;;2.40;78.10;;;;;;5055741;28;20039;-71
2020/12/02 09:49:35;;;;;;;93.20;52.05;;;2.30;78.80;;;;;;5056295;28;20130;-69
2020/12/02 09:52:09;;;;;;;91.10;50.92;;;2.30;78.60;;;;;;5055907;28;20025;-70
2020/12/02 09:54:46;;;;;;;91.75;51.05;;;2.20;78.00;;;;;;5056034;28;20473;-68
2020/12/02 09:57:16;;;;;;;103.20;60.50;;;2.10;77.30;;;;;;5056012;28;20135;-69
2020/12/02 09:59:42;;;;;;;122.18;62.50;;;1.90;78.30;;;;;;5055488;28;20079;-70
2020/12/02 10:02:17;;;;;;;129.40;72.35;;;2.00;79.00;;;;;;5056382;28;20369;-70
2020/12/02 10:04:54;;;;;;;139.25;80.40;;;2.10;79.30;;;;;;5055471;28;20033;-68
2020/12/02 10:07:55;;;;;;;99.50;53.40;;;2.30;78.50;;;;;;5054349;28;20032;-69
2020/12/02 10:10:48;;;;;;;116.78;59.83;;;2.30;77.90;;;;;;5055588;28;20473;-68
2020/12/02 10:13:20;;;;;;;133.15;76.28;;;2.30;76.30;;;;;;5055493;28;20072;-69
2020/12/02 10:16:24;;;;;;;115.18;55.75;;;2.30;76.50;;;;;;5055625;28;20025;-70
2020/12/02 10:19:19;;;;;;;171.60;85.00;;;2.20;77.10;;;;;;5053735;28;20033;-70
2020/12/02 10:22:22;;;;;;;69.72;38.10;;;2.20;76.90;;;;;;5045941;28;20043;-70
2020/12/02 10:24:48;;;;;;;159.80;77.57;;;2.10;77.20;;;;;;5052311;28;20100;-69
2020/12/02 10:27:37;;;;;;;78.25;41.38;;;2.20;77.70;;;;;;5053813;28;20441;-70
2020/12/02 10:30:19;;;;;;;104.43;53.78;;;2.20;77.50;;;;;;5051780;28;20492;-70
2020/12/02 10:33:42;;;;;;;109.72;54.90;;;2.30;77.60;;;;;;5051956;28;20047;-72
2020/12/02 10:36:08;;;;;;;67.18;38.83;;;2.40;77.60;;;;;;5030362;28;20026;-70
2020/12/02 10:38:41;;;;;;;98.22;54.35;;;2.30;78.20;;;;;;5033018;28;20037;-70
2020/12/02 10:41:23;;;;;;;68.80;37.67;;;2.40;77.80;;;;;;5034105;28;20083;-70
2020/12/02 10:44:26;;;;;;;81.53;43.28;;;2.40;76.60;;;;;;5035140;28;20022;-71
2020/12/02 10:47:16;;;;;;;70.50;38.00;;;2.40;77.20;;;;;;5051816;28;20032;-71
2020/12/02 10:49:45;;;;;;;59.60;33.90;;;2.30;78.00;;;;;;5052955;28;20032;-70
2020/12/02 10:52:16;;;;;;;62.15;35.60;;;2.30;77.80;;;;;;5053580;28;20063;-68
2020/12/02 10:54:46;;;;;;;61.95;32.20;;;2.20;78.30;;;;;;5051968;28;20496;-68
2020/12/02 10:57:18;;;;;;;92.32;42.22;;;2.20;78.60;;;;;;5053695;28;20041;-70
2020/12/02 10:59:45;;;;;;;69.95;37.92;;;2.30;78.20;;;;;;5053520;28;20036;-68
2020/12/02 11:02:19;;;;;;;59.67;34.38;;;2.30;79.00;;;;;;5052989;28;20032;-69
2020/12/02 11:04:48;;;;;;;66.53;37.00;;;2.30;78.40;;;;;;5053795;28;20029;-67
2020/12/02 11:07:44;;;;;;;115.47;52.05;;;2.40;78.50;;;;;;5053137;28;20021;-69
2020/12/02 11:10:42;;;;;;;90.07;42.25;;;2.50;79.00;;;;;;5053250;28;20491;-68
2020/12/02 11:13:39;;;;;;;88.07;42.92;;;2.60;77.50;;;;;;5052553;28;20048;-70
2020/12/02 11:16:08;;;;;;;85.05;39.08;;;2.60;77.90;;;;;;5052964;28;20469;-71
2020/12/02 11:18:52;;;;;;;57.78;33.15;;;2.70;77.20;;;;;;5054457;28;20036;-70
2020/12/02 11:21:42;;;;;;;54.67;31.42;;;2.70;77.50;;;;;;5054205;28;20025;-69
2020/12/02 11:24:15;;;;;;;59.90;33.95;;;2.80;77.80;;;;;;5054468;28;20025;-68
2020/12/02 11:26:41;;;;;;;56.33;32.78;;;2.70;76.70;;;;;;5054491;28;20024;-71
2020/12/02 11:29:12;;;;;;;68.35;38.08;;;2.80;77.20;;;;;;5052759;28;20029;-70
2020/12/02 11:31:47;;;;;;;61.88;34.80;;;2.90;77.60;;;;;;5053248;28;20036;-70
2020/12/02 11:34:18;;;;;;;;;;;2.90;76.70;;;;;;5053416;28;20029;-70
2020/12/02 11:37:07;;;;;;;66.18;35.22;;;3.00;76.40;;;;;;5054210;28;20400;-71
2020/12/02 11:39:33;;;;;;;85.60;43.88;;;2.90;77.30;;;;;;5052183;28;20461;-69
2020/12/02 11:42:24;;;;;;;87.55;44.08;;;3.10;78.00;;;;;;5054221;28;20036;-71
2020/12/02 11:44:57;;;;;;;51.42;29.52;;;3.10;76.50;;;;;;5053288;28;20059;-66
2020/12/02 11:47:52;;;;;;;56.67;30.83;;;3.00;75.90;;;;;;5053130;28;20096;-68
2020/12/02 11:50:21;;;;;;;92.40;49.85;;;2.90;76.10;;;;;;5053920;28;20037;-68
2020/12/02 11:52:57;;;;;;;72.45;39.47;;;3.00;77.20;;;;;;5052943;28;20480;-67
2020/12/02 11:55:23;;;;;;;91.25;47.08;;;3.10;76.80;;;;;;5052739;28;20465;-69
2020/12/02 11:57:52;;;;;;;82.63;43.15;;;3.20;76.70;;;;;;5053668;28;20049;-70
2020/12/02 12:00:18;;;;;;;88.97;45.15;;;3.30;77.80;;;;;;5054011;28;20075;-69
2020/12/02 12:03:03;;;;;;;101.32;46.17;;;3.30;75.40;;;;;;5053791;28;20060;-70
2020/12/02 12:05:55;;;;;;;;;;;3.30;75.80;;;;;;5053821;28;20385;-69
2020/12/02 12:08:37;;;;;;;62.83;33.22;;;3.30;75.70;;;;;;5037479;28;19974;-68
2020/12/02 12:11:10;;;;;;;57.28;31.52;;;3.20;75.70;;;;;;5053766;28;20052;-69
2020/12/02 12:13:42;;;;;;;59.90;33.35;;;3.10;75.70;;;;;;5052795;28;20029;-70
2020/12/02 12:16:20;;;;;;;68.70;38.30;;;3.20;76.60;;;;;;5053718;28;20021;-69
2020/12/02 12:18:59;;;;;;;73.63;38.60;;;3.40;77.20;;;;;;5053361;28;20087;-68
2020/12/02 12:21:45;;;;;;;69.50;37.97;;;3.80;77.20;;;;;;5053248;28;20025;-70
2020/12/02 12:24:14;;;;;;;105.97;55.88;;;4.20;73.40;;;;;;5054001;28;20082;-70
2020/12/02 12:26:44;;;;;;;55.67;32.45;;;4.50;71.70;;;;;;5053305;28;20021;-70
2020/12/02 12:29:12;;;;;;;62.95;35.55;;;4.50;70.80;;;;;;5053881;28;20029;-71
2020/12/02 12:31:49;;;;;;;64.45;39.90;;;4.90;73.90;;;;;;5053578;28;20074;-68
2020/12/02 12:34:51;;;;;;;56.65;31.63;;;5.00;68.10;;;;;;5053259;28;20029;-67
2020/12/02 12:37:37;;;;;;;65.97;37.83;;;5.30;68.40;;;;;;5053253;28;20084;-70
2020/12/02 12:40:11;;;;;;;51.70;31.08;;;5.20;68.00;;;;;;5053027;28;20068;-69
2020/12/02 12:42:38;;;;;;;58.13;35.58;;;4.70;68.80;;;;;;5053740;28;20028;-70
2020/12/02 12:45:12;;;;;;;56.58;34.08;;;4.80;72.30;;;;;;5053387;28;20031;-69
2020/12/02 12:47:39;;;;;;;53.40;33.03;;;5.20;70.40;;;;;;5051966;28;20025;-69
2020/12/02 12:50:08;;;;;;;51.25;29.38;;;5.90;70.10;;;;;;5053395;28;20033;-71
2020/12/02 12:52:35;;;;;;;56.90;31.30;;;6.30;65.30;;;;;;5053660;28;20404;-69
2020/12/02 12:55:00;;;;;;;57.65;31.92;;;6.00;65.60;;;;;;5051775;28;20032;-72